Main page
METAR-TAF:

METAR-TAF

Airports :

Gibraltar, Gibraltar

Gibraltar International Airport

latitude: 36-09N, longitude: 005-21W, elevation: 5 m

Current weather observation

The report was made 1 hour and 11 minutes ago, at 00:50 UTC
Wind 12 kt from the West/Southwest
Temperature 19°C
Humidity 88%
Pressure 1017 hPa
Visibility 10 km or more

METAR: LXGB 290050Z AUTO 25012KT 9999 // NCD 19/17 Q1017

Time: 04:01 (02:01 UTC)

Forecast

The report was made 9 hours and 40 minutes ago, at 16:21 UTC
Forecast valid from 28 at 18 UTC to 28 at 22 UTC
Wind 7 kt from the East/Southeast
Visibility 10 km or more
Few clouds at a height of 3000 ft
Becoming
from 28 at 18 UTC to 28 at 22 UTC
Wind 5 kt from the West/Southwest
Probability 40% :
Temporary
from 28 at 18 UTC to 28 at 22 UTC
Visibility: 7000 m
haze

TAF: LXGB 281621Z 2818/2822 12007KT 9999 FEW030 BECMG 2818/2822 24005KT PROB40 TEMPO 2818/2822 7000 HZ

Weather observations and forecasts of more than 4000 airports (METAR and TAF reports).

The available stations are represented by yellow and red dots on the map.

Hover mouse over dot to see the name of the station.

Then click to see weather observations and forecasts.

To change the map : click on the green buttons with a black cross to zoom in, on the green button with a dash to zoom out, or on the green arrows for adjacent maps.


METAR-TAF: